sensor_id;sensor_type;location;lat;lon;timestamp;pressure;altitude;pressure_sealevel;temperature;humidity
31092;BME280;17747;51.070;10.930;2022-09-03T00:01:05;101281.22;;;8.76;69.77
31092;BME280;17747;51.070;10.930;2022-09-03T00:02:12;101280.13;;;9.06;68.66
31092;BME280;17747;51.070;10.930;2022-09-03T00:03:19;101283.72;;;9.01;68.99
31092;BME280;17747;51.070;10.930;2022-09-03T00:04:38;101274.84;;;9.09;68.59
31092;BME280;17747;51.070;10.930;2022-09-03T00:05:47;101274.47;;;8.45;69.92
31092;BME280;17747;51.070;10.930;2022-09-03T00:06:53;101270.72;;;8.73;69.16
31092;BME280;17747;51.070;10.930;2022-09-03T00:08:01;101279.41;;;8.90;68.40
31092;BME280;17747;51.070;10.930;2022-09-03T00:09:08;101273.19;;;8.96;68.44
31092;BME280;17747;51.070;10.930;2022-09-03T00:10:18;101276.66;;;9.04;68.58
31092;BME280;17747;51.070;10.930;2022-09-03T00:11:23;101272.56;;;8.62;69.39
31092;BME280;17747;51.070;10.930;2022-09-03T00:12:31;101269.59;;;9.06;68.50
31092;BME280;17747;51.070;10.930;2022-09-03T00:13:36;101278.56;;;8.84;69.44
31092;BME280;17747;51.070;10.930;2022-09-03T00:14:43;101278.75;;;8.59;69.75
31092;BME280;17747;51.070;10.930;2022-09-03T00:15:46;101276.00;;;8.72;69.41
31092;BME280;17747;51.070;10.930;2022-09-03T00:16:53;101273.38;;;8.72;69.25
31092;BME280;17747;51.070;10.930;2022-09-03T00:17:56;101270.72;;;8.73;69.48
31092;BME280;17747;51.070;10.930;2022-09-03T00:19:02;101275.16;;;8.70;69.85
31092;BME280;17747;51.070;10.930;2022-09-03T00:20:06;101275.16;;;8.68;69.64
31092;BME280;17747;51.070;10.930;2022-09-03T00:21:11;101276.00;;;8.72;69.48
31092;BME280;17747;51.070;10.930;2022-09-03T00:22:17;101267.25;;;8.65;68.74
31092;BME280;17747;51.070;10.930;2022-09-03T00:23:21;101269.00;;;8.66;69.10
31092;BME280;17747;51.070;10.930;2022-09-03T00:24:27;101266.59;;;8.37;70.03
31092;BME280;17747;51.070;10.930;2022-09-03T00:25:35;101268.13;;;8.69;70.01
31092;BME280;17747;51.070;10.930;2022-09-03T00:26:39;101266.47;;;8.58;69.99
31092;BME280;17747;51.070;10.930;2022-09-03T00:27:43;101266.56;;;8.45;69.91
31092;BME280;17747;51.070;10.930;2022-09-03T00:28:50;101264.00;;;8.34;70.68
31092;BME280;17747;51.070;10.930;2022-09-03T00:29:54;101267.25;;;8.68;69.99
31092;BME280;17747;51.070;10.930;2022-09-03T00:31:05;101267.44;;;8.42;69.93
31092;BME280;17747;51.070;10.930;2022-09-03T00:32:14;101277.06;;;8.49;69.59
31092;BME280;17747;51.070;10.930;2022-09-03T00:33:20;101264.72;;;8.57;69.79
31092;BME280;17747;51.070;10.930;2022-09-03T00:34:25;101271.94;;;8.20;70.46
31092;BME280;17747;51.070;10.930;2022-09-03T00:35:31;101276.19;;;8.47;70.55
31092;BME280;17747;51.070;10.930;2022-09-03T00:36:38;101270.13;;;8.34;70.74
31092;BME280;17747;51.070;10.930;2022-09-03T00:37:41;101278.00;;;8.37;71.19
31092;BME280;17747;51.070;10.930;2022-09-03T00:38:42;101272.69;;;8.45;70.63
31092;BME280;17747;51.070;10.930;2022-09-03T00:39:44;101273.78;;;8.12;71.76
31092;BME280;17747;51.070;10.930;2022-09-03T00:40:55;101275.34;;;8.39;71.32
31092;BME280;17747;51.070;10.930;2022-09-03T00:42:11;101277.97;;;8.41;71.33
31092;BME280;17747;51.070;10.930;2022-09-03T00:43:27;101277.25;;;8.16;71.96
31092;BME280;17747;51.070;10.930;2022-09-03T00:44:41;101278.94;;;8.26;72.09
31092;BME280;17747;51.070;10.930;2022-09-03T00:45:52;101280.63;;;8.39;71.25
31092;BME280;17747;51.070;10.930;2022-09-03T00:46:59;101277.78;;;8.71;70.38
31092;BME280;17747;51.070;10.930;2022-09-03T00:48:09;101281.13;;;8.94;69.61
31092;BME280;17747;51.070;10.930;2022-09-03T00:49:28;101277.56;;;8.99;70.20
31092;BME280;17747;51.070;10.930;2022-09-03T00:50:45;101276.66;;;9.04;69.72
31092;BME280;17747;51.070;10.930;2022-09-03T00:51:55;101274.28;;;8.66;70.10
31092;BME280;17747;51.070;10.930;2022-09-03T00:53:09;101281.34;;;8.62;70.14
31092;BME280;17747;51.070;10.930;2022-09-03T00:54:18;101272.47;;;8.80;70.01
31092;BME280;17747;51.070;10.930;2022-09-03T00:55:26;101271.84;;;8.40;70.03
31092;BME280;17747;51.070;10.930;2022-09-03T00:56:36;101271.56;;;8.83;70.16
31092;BME280;17747;51.070;10.930;2022-09-03T00:57:47;101267.31;;;8.60;70.92
31092;BME280;17747;51.070;10.930;2022-09-03T00:59:02;101270.69;;;8.78;70.15
31092;BME280;17747;51.070;10.930;2022-09-03T01:00:10;101266.31;;;8.80;70.22
31092;BME280;17747;51.070;10.930;2022-09-03T01:01:17;101265.41;;;8.82;70.47
31092;BME280;17747;51.070;10.930;2022-09-03T01:02:23;101265.41;;;8.78;71.01
31092;BME280;17747;51.070;10.930;2022-09-03T01:03:37;101260.22;;;8.70;70.71
31092;BME280;17747;51.070;10.930;2022-09-03T01:04:51;101273.31;;;8.78;70.52
31092;BME280;17747;51.070;10.930;2022-09-03T01:06:05;101258.53;;;8.61;70.01
31092;BME280;17747;51.070;10.930;2022-09-03T01:07:20;101258.41;;;8.77;70.41
31092;BME280;17747;51.070;10.930;2022-09-03T01:08:32;101262.78;;;8.84;70.61
31092;BME280;17747;51.070;10.930;2022-09-03T01:09:45;101260.06;;;8.91;70.19
31092;BME280;17747;51.070;10.930;2022-09-03T01:10:54;101266.22;;;8.92;70.15
31092;BME280;17747;51.070;10.930;2022-09-03T01:11:59;101261.06;;;8.74;70.36
31092;BME280;17747;51.070;10.930;2022-09-03T01:13:10;101259.28;;;8.79;70.31
31092;BME280;17747;51.070;10.930;2022-09-03T01:14:20;101258.56;;;8.54;70.59
31092;BME280;17747;51.070;10.930;2022-09-03T01:15:31;101255.50;;;9.10;69.28
31092;BME280;17747;51.070;10.930;2022-09-03T01:16:38;101259.09;;;9.00;69.59
31092;BME280;17747;51.070;10.930;2022-09-03T01:18:00;101254.88;;;8.78;69.68
31092;BME280;17747;51.070;10.930;2022-09-03T01:19:37;101256.25;;;9.23;69.15
31092;BME280;17747;51.070;10.930;2022-09-03T01:20:54;101249.22;;;9.25;69.17
31092;BME280;17747;51.070;10.930;2022-09-03T01:22:13;101255.50;;;9.13;68.67
31092;BME280;17747;51.070;10.930;2022-09-03T01:24:06;101254.47;;;9.27;68.56
31092;BME280;17747;51.070;10.930;2022-09-03T01:25:15;101256.78;;;8.60;68.60
31092;BME280;17747;51.070;10.930;2022-09-03T01:26:27;101250.22;;;9.10;68.78
31092;BME280;17747;51.070;10.930;2022-09-03T01:27:38;101250.25;;;9.07;69.13
31092;BME280;17747;51.070;10.930;2022-09-03T01:28:49;101257.47;;;8.90;69.57
31092;BME280;17747;51.070;10.930;2022-09-03T01:30:00;101258.47;;;8.69;70.31
31092;BME280;17747;51.070;10.930;2022-09-03T01:31:11;101254.00;;;8.76;70.23
31092;BME280;17747;51.070;10.930;2022-09-03T01:32:20;101255.59;;;9.03;69.45
31092;BME280;17747;51.070;10.930;2022-09-03T01:33:27;101254.13;;;8.66;69.83
31092;BME280;17747;51.070;10.930;2022-09-03T01:34:42;101247.59;;;9.09;69.54
31092;BME280;17747;51.070;10.930;2022-09-03T01:35:47;101251.31;;;8.88;69.97
31092;BME280;17747;51.070;10.930;2022-09-03T01:36:54;101248.56;;;9.03;69.88
31092;BME280;17747;51.070;10.930;2022-09-03T01:38:11;101250.34;;;9.01;70.11
31092;BME280;17747;51.070;10.930;2022-09-03T01:39:20;101248.47;;;9.09;69.56
31092;BME280;17747;51.070;10.930;2022-09-03T01:40:30;101246.09;;;8.77;70.33
31092;BME280;17747;51.070;10.930;2022-09-03T01:41:45;101243.72;;;8.47;71.40
31092;BME280;17747;51.070;10.930;2022-09-03T01:43:17;101245.56;;;8.31;71.55
31092;BME280;17747;51.070;10.930;2022-09-03T01:44:30;101252.75;;;8.04;71.98
31092;BME280;17747;51.070;10.930;2022-09-03T01:45:45;101249.06;;;8.34;70.87
31092;BME280;17747;51.070;10.930;2022-09-03T01:46:59;101248.81;;;8.70;70.88
31092;BME280;17747;51.070;10.930;2022-09-03T01:48:14;101242.81;;;8.49;70.84
31092;BME280;17747;51.070;10.930;2022-09-03T01:49:23;101252.31;;;8.70;69.93
31092;BME280;17747;51.070;10.930;2022-09-03T01:50:32;101247.91;;;8.72;70.04
31092;BME280;17747;51.070;10.930;2022-09-03T01:51:37;101251.53;;;8.57;70.96
31092;BME280;17747;51.070;10.930;2022-09-03T01:52:42;101247.09;;;8.62;70.34
31092;BME280;17747;51.070;10.930;2022-09-03T01:54:12;101245.13;;;8.92;69.81
31092;BME280;17747;51.070;10.930;2022-09-03T01:55:27;101245.22;;;8.83;69.40
31092;BME280;17747;51.070;10.930;2022-09-03T01:56:44;101247.81;;;8.87;69.31
31092;BME280;17747;51.070;10.930;2022-09-03T01:57:53;101253.81;;;9.00;68.77
31092;BME280;17747;51.070;10.930;2022-09-03T01:59:01;101245.25;;;8.80;68.68
31092;BME280;17747;51.070;10.930;2022-09-03T02:00:07;101240.13;;;8.57;68.77
31092;BME280;17747;51.070;10.930;2022-09-03T02:01:16;101248.84;;;8.63;69.43
31092;BME280;17747;51.070;10.930;2022-09-03T02:02:23;101241.84;;;8.61;69.83
31092;BME280;17747;51.070;10.930;2022-09-03T02:03:32;101247.03;;;8.72;69.40
31092;BME280;17747;51.070;10.930;2022-09-03T02:04:34;101249.66;;;8.72;69.14
31092;BME280;17747;51.070;10.930;2022-09-03T02:05:36;101249.75;;;8.61;69.64
31092;BME280;17747;51.070;10.930;2022-09-03T02:06:38;101240.13;;;8.57;69.69
31092;BME280;17747;51.070;10.930;2022-09-03T02:07:43;101246.22;;;8.66;69.54
31092;BME280;17747;51.070;10.930;2022-09-03T02:08:44;101252.41;;;8.59;69.70
31092;BME280;17747;51.070;10.930;2022-09-03T02:09:46;101248.31;;;8.16;70.34
31092;BME280;17747;51.070;10.930;2022-09-03T02:10:48;101243.81;;;8.33;70.45
31092;BME280;17747;51.070;10.930;2022-09-03T02:11:54;101247.31;;;8.36;70.66
31092;BME280;17747;51.070;10.930;2022-09-03T02:13:01;101247.50;;;8.01;71.16
31092;BME280;17747;51.070;10.930;2022-09-03T02:14:05;101256.13;;;8.28;71.19
31092;BME280;17747;51.070;10.930;2022-09-03T02:15:11;101250.16;;;7.97;72.03
31092;BME280;17747;51.070;10.930;2022-09-03T02:16:15;101249.22;;;8.08;71.29
31092;BME280;17747;51.070;10.930;2022-09-03T02:17:15;101245.81;;;7.85;72.91
31092;BME280;17747;51.070;10.930;2022-09-03T02:18:20;101246.66;;;7.99;72.55
31092;BME280;17747;51.070;10.930;2022-09-03T02:19:22;101248.44;;;7.87;72.25
31092;BME280;17747;51.070;10.930;2022-09-03T02:20:26;101239.53;;;8.17;72.35
31092;BME280;17747;51.070;10.930;2022-09-03T02:21:32;101244.84;;;8.07;71.74
31092;BME280;17747;51.070;10.930;2022-09-03T02:22:35;101249.06;;;8.36;70.89
31092;BME280;17747;51.070;10.930;2022-09-03T02:23:38;101247.97;;;8.68;70.24
31092;BME280;17747;51.070;10.930;2022-09-03T02:24:40;101243.88;;;8.24;69.73
31092;BME280;17747;51.070;10.930;2022-09-03T02:25:45;101247.25;;;8.44;69.78
31092;BME280;17747;51.070;10.930;2022-09-03T02:26:48;101250.97;;;8.06;69.93
31092;BME280;17747;51.070;10.930;2022-09-03T02:27:50;101245.56;;;8.31;70.02
31092;BME280;17747;51.070;10.930;2022-09-03T02:28:52;101243.78;;;8.39;69.82
31092;BME280;17747;51.070;10.930;2022-09-03T02:29:53;101243.81;;;8.33;69.70
31092;BME280;17747;51.070;10.930;2022-09-03T02:30:56;101237.78;;;8.16;70.15
31092;BME280;17747;51.070;10.930;2022-09-03T02:31:57;101238.66;;;8.15;69.63
31092;BME280;17747;51.070;10.930;2022-09-03T02:32:59;101249.28;;;7.99;70.05
31092;BME280;17747;51.070;10.930;2022-09-03T02:33:59;101242.41;;;7.71;70.93
31092;BME280;17747;51.070;10.930;2022-09-03T02:35:01;101245.75;;;7.97;70.80
31092;BME280;17747;51.070;10.930;2022-09-03T02:36:06;101241.44;;;7.90;71.30
31092;BME280;17747;51.070;10.930;2022-09-03T02:37:12;101241.28;;;8.15;70.20
31092;BME280;17747;51.070;10.930;2022-09-03T02:38:15;101249.38;;;7.81;70.89
31092;BME280;17747;51.070;10.930;2022-09-03T02:39:17;101245.75;;;7.97;71.61
31092;BME280;17747;51.070;10.930;2022-09-03T02:40:17;101238.75;;;7.99;70.82
31092;BME280;17747;51.070;10.930;2022-09-03T02:41:19;101238.78;;;7.93;70.68
31092;BME280;17747;51.070;10.930;2022-09-03T02:42:20;101236.03;;;8.13;70.37
31092;BME280;17747;51.070;10.930;2022-09-03T02:43:25;101245.75;;;7.97;70.56
31092;BME280;17747;51.070;10.930;2022-09-03T02:44:29;101242.41;;;7.62;70.98
31092;BME280;17747;51.070;10.930;2022-09-03T02:45:31;101242.22;;;8.11;70.38
31092;BME280;17747;51.070;10.930;2022-09-03T02:46:35;101244.94;;;7.85;70.60
31092;BME280;17747;51.070;10.930;2022-09-03T02:47:39;101244.78;;;8.17;70.48
31092;BME280;17747;51.070;10.930;2022-09-03T02:48:42;101245.72;;;8.06;70.13
31092;BME280;17747;51.070;10.930;2022-09-03T02:49:43;101247.53;;;7.95;70.64
31092;BME280;17747;51.070;10.930;2022-09-03T02:50:46;101239.75;;;7.77;70.66
31092;BME280;17747;51.070;10.930;2022-09-03T02:51:48;101241.34;;;8.04;70.84
31092;BME280;17747;51.070;10.930;2022-09-03T02:52:48;101242.44;;;7.53;71.96
31092;BME280;17747;51.070;10.930;2022-09-03T02:53:50;101235.41;;;7.62;72.62
31092;BME280;17747;51.070;10.930;2022-09-03T02:54:50;101249.47;;;7.54;72.62
31092;BME280;17747;51.070;10.930;2022-09-03T02:55:52;101240.63;;;7.77;72.20
31092;BME280;17747;51.070;10.930;2022-09-03T02:56:53;101239.56;;;8.07;71.36
31092;BME280;17747;51.070;10.930;2022-09-03T02:57:54;101244.91;;;8.00;71.57
31092;BME280;17747;51.070;10.930;2022-09-03T02:58:56;101246.06;;;6.97;72.47
31092;BME280;17747;51.070;10.930;2022-09-03T02:59:57;101238.91;;;7.66;72.24
31092;BME280;17747;51.070;10.930;2022-09-03T03:00:58;101242.53;;;7.10;71.97
31092;BME280;17747;51.070;10.930;2022-09-03T03:02:01;101244.28;;;7.29;72.97
31092;BME280;17747;51.070;10.930;2022-09-03T03:03:02;101244.22;;;7.47;72.06
31092;BME280;17747;51.070;10.930;2022-09-03T03:04:03;101239.88;;;7.19;72.49
31092;BME280;17747;51.070;10.930;2022-09-03T03:05:04;101243.25;;;7.71;72.33
31092;BME280;17747;51.070;10.930;2022-09-03T03:06:07;101235.38;;;7.70;72.49
31092;BME280;17747;51.070;10.930;2022-09-03T03:07:08;101239.88;;;7.42;72.98
31092;BME280;17747;51.070;10.930;2022-09-03T03:08:10;101237.00;;;7.98;71.65
31092;BME280;17747;51.070;10.930;2022-09-03T03:09:14;101238.97;;;7.46;72.40
31092;BME280;17747;51.070;10.930;2022-09-03T03:10:16;101242.38;;;7.77;71.58
31092;BME280;17747;51.070;10.930;2022-09-03T03:11:17;101240.59;;;7.82;71.99
31092;BME280;17747;51.070;10.930;2022-09-03T03:12:19;101241.59;;;7.50;72.85
31092;BME280;17747;51.070;10.930;2022-09-03T03:13:20;101241.63;;;7.38;72.57
31092;BME280;17747;51.070;10.930;2022-09-03T03:14:22;101244.25;;;7.17;74.10
31092;BME280;17747;51.070;10.930;2022-09-03T03:15:22;101253.91;;;7.27;73.41
31092;BME280;17747;51.070;10.930;2022-09-03T03:16:24;101246.84;;;7.54;73.11
31092;BME280;17747;51.070;10.930;2022-09-03T03:17:26;101246.00;;;7.42;73.60
31092;BME280;17747;51.070;10.930;2022-09-03T03:18:28;101245.91;;;7.68;72.68
31092;BME280;17747;51.070;10.930;2022-09-03T03:19:29;101253.03;;;7.34;73.93
31092;BME280;17747;51.070;10.930;2022-09-03T03:20:30;101241.44;;;7.89;73.27
31092;BME280;17747;51.070;10.930;2022-09-03T03:21:31;101245.94;;;7.62;72.39
31092;BME280;17747;51.070;10.930;2022-09-03T03:22:32;101247.59;;;7.88;72.53
31092;BME280;17747;51.070;10.930;2022-09-03T03:23:34;101245.78;;;7.94;72.49
31092;BME280;17747;51.070;10.930;2022-09-03T03:24:36;101243.16;;;8.00;72.19
31092;BME280;17747;51.070;10.930;2022-09-03T03:25:38;101244.16;;;7.69;73.18
31092;BME280;17747;51.070;10.930;2022-09-03T03:26:39;101244.03;;;7.96;72.69
31092;BME280;17747;51.070;10.930;2022-09-03T03:27:41;101247.75;;;7.37;73.19
31092;BME280;17747;51.070;10.930;2022-09-03T03:28:42;101241.47;;;7.75;73.33
31092;BME280;17747;51.070;10.930;2022-09-03T03:29:45;101244.28;;;7.12;74.04
31092;BME280;17747;51.070;10.930;2022-09-03T03:30:45;101250.31;;;7.68;73.58
31092;BME280;17747;51.070;10.930;2022-09-03T03:31:48;101252.09;;;7.49;73.36
31092;BME280;17747;51.070;10.930;2022-09-03T03:32:51;101244.22;;;7.49;74.02
31092;BME280;17747;51.070;10.930;2022-09-03T03:33:54;101243.16;;;7.99;72.79
31092;BME280;17747;51.070;10.930;2022-09-03T03:34:55;101244.88;;;8.01;72.68
31092;BME280;17747;51.070;10.930;2022-09-03T03:35:57;101246.50;;;8.24;71.71
31092;BME280;17747;51.070;10.930;2022-09-03T03:36:57;101247.28;;;8.38;70.96
31092;BME280;17747;51.070;10.930;2022-09-03T03:37:59;101240.63;;;7.73;71.55
31092;BME280;17747;51.070;10.930;2022-09-03T03:39:00;101242.13;;;8.20;70.46
31092;BME280;17747;51.070;10.930;2022-09-03T03:40:03;101246.69;;;7.93;71.51
31092;BME280;17747;51.070;10.930;2022-09-03T03:41:08;101242.94;;;8.35;71.41
31092;BME280;17747;51.070;10.930;2022-09-03T03:42:09;101246.59;;;8.10;70.30
31092;BME280;17747;51.070;10.930;2022-09-03T03:43:10;101244.56;;;8.50;70.18
31092;BME280;17747;51.070;10.930;2022-09-03T03:44:12;101252.38;;;8.62;69.64
31092;BME280;17747;51.070;10.930;2022-09-03T03:45:12;101245.44;;;8.49;69.89
31092;BME280;17747;51.070;10.930;2022-09-03T03:46:14;101244.78;;;8.23;70.18
31092;BME280;17747;51.070;10.930;2022-09-03T03:47:14;101245.50;;;8.42;70.43
31092;BME280;17747;51.070;10.930;2022-09-03T03:48:18;101248.28;;;8.23;70.71
31092;BME280;17747;51.070;10.930;2022-09-03T03:49:19;101249.88;;;8.44;69.78
31092;BME280;17747;51.070;10.930;2022-09-03T03:50:20;101255.16;;;8.41;70.20
31092;BME280;17747;51.070;10.930;2022-09-03T03:51:21;101251.38;;;8.76;69.09
31092;BME280;17747;51.070;10.930;2022-09-03T03:52:23;101252.59;;;8.30;69.63
31092;BME280;17747;51.070;10.930;2022-09-03T03:53:23;101247.41;;;8.17;70.85
31092;BME280;17747;51.070;10.930;2022-09-03T03:54:25;101251.91;;;8.02;70.64
31092;BME280;17747;51.070;10.930;2022-09-03T03:55:25;101243.72;;;8.42;69.89
31092;BME280;17747;51.070;10.930;2022-09-03T03:56:27;101253.59;;;8.11;70.92
31092;BME280;17747;51.070;10.930;2022-09-03T03:57:29;101246.50;;;8.21;71.24
31092;BME280;17747;51.070;10.930;2022-09-03T03:58:32;101247.31;;;8.32;70.84
31092;BME280;17747;51.070;10.930;2022-09-03T03:59:33;101249.75;;;8.61;70.47
31092;BME280;17747;51.070;10.930;2022-09-03T04:00:34;101245.44;;;8.49;70.07
31092;BME280;17747;51.070;10.930;2022-09-03T04:01:36;101248.91;;;8.54;70.81
31092;BME280;17747;51.070;10.930;2022-09-03T04:02:38;101254.50;;;8.07;71.24
31092;BME280;17747;51.070;10.930;2022-09-03T04:03:41;101247.94;;;8.66;70.62
31092;BME280;17747;51.070;10.930;2022-09-03T04:04:42;101256.66;;;8.76;69.74
31092;BME280;17747;51.070;10.930;2022-09-03T04:05:52;101249.66;;;8.79;69.83
31092;BME280;17747;51.070;10.930;2022-09-03T04:06:54;101249.69;;;8.70;69.25
31092;BME280;17747;51.070;10.930;2022-09-03T04:08:00;101243.28;;;9.03;68.38
31092;BME280;17747;51.070;10.930;2022-09-03T04:09:00;101245.03;;;9.04;67.93
31092;BME280;17747;51.070;10.930;2022-09-03T04:10:02;101252.19;;;8.90;68.28
31092;BME280;17747;51.070;10.930;2022-09-03T04:11:05;101252.84;;;9.15;67.08
31092;BME280;17747;51.070;10.930;2022-09-03T04:12:07;101251.66;;;8.41;68.54
31092;BME280;17747;51.070;10.930;2022-09-03T04:13:07;101251.31;;;8.86;68.38
31092;BME280;17747;51.070;10.930;2022-09-03T04:14:09;101250.69;;;8.55;69.02
31092;BME280;17747;51.070;10.930;2022-09-03T04:15:09;101254.72;;;9.01;67.36
31092;BME280;17747;51.070;10.930;2022-09-03T04:16:12;101255.59;;;8.98;67.13
31092;BME280;17747;51.070;10.930;2022-09-03T04:17:13;101257.97;;;9.29;66.36
31092;BME280;17747;51.070;10.930;2022-09-03T04:18:15;101254.34;;;9.37;66.09
31092;BME280;17747;51.070;10.930;2022-09-03T04:19:17;101255.50;;;9.10;66.13
31092;BME280;17747;51.070;10.930;2022-09-03T04:20:18;101258.19;;;9.04;67.41
31092;BME280;17747;51.070;10.930;2022-09-03T04:21:20;101255.56;;;9.04;66.92
31092;BME280;17747;51.070;10.930;2022-09-03T04:22:22;101252.84;;;9.10;66.49
31092;BME280;17747;51.070;10.930;2022-09-03T04:23:22;101249.63;;;8.75;68.32
31092;BME280;17747;51.070;10.930;2022-09-03T04:24:24;101260.75;;;9.10;67.03
31092;BME280;17747;51.070;10.930;2022-09-03T04:25:25;101255.84;;;8.69;67.49
31092;BME280;17747;51.070;10.930;2022-09-03T04:26:28;101250.97;;;9.23;66.53
31092;BME280;17747;51.070;10.930;2022-09-03T04:27:30;101255.69;;;8.89;67.27
31092;BME280;17747;51.070;10.930;2022-09-03T04:28:32;101255.66;;;8.95;67.47
31092;BME280;17747;51.070;10.930;2022-09-03T04:29:33;101257.41;;;8.94;67.53
31092;BME280;17747;51.070;10.930;2022-09-03T04:30:36;101254.59;;;9.11;67.27
31092;BME280;17747;51.070;10.930;2022-09-03T04:31:37;101257.06;;;9.30;65.97
31092;BME280;17747;51.070;10.930;2022-09-03T04:32:59;101256.16;;;9.32;65.25
31092;BME280;17747;51.070;10.930;2022-09-03T04:34:00;101254.75;;;8.98;66.06
31092;BME280;17747;51.070;10.930;2022-09-03T04:35:04;101252.63;;;9.33;66.08
31092;BME280;17747;51.070;10.930;2022-09-03T04:36:08;101256.66;;;8.80;68.27
31092;BME280;17747;51.070;10.930;2022-09-03T04:37:10;101255.50;;;9.13;66.73
31092;BME280;17747;51.070;10.930;2022-09-03T04:38:11;101265.28;;;8.98;67.21
31092;BME280;17747;51.070;10.930;2022-09-03T04:39:12;101258.00;;;9.22;67.38
31092;BME280;17747;51.070;10.930;2022-09-03T04:40:13;101260.34;;;8.52;69.33
31092;BME280;17747;51.070;10.930;2022-09-03T04:41:16;101255.50;;;9.13;67.92
31092;BME280;17747;51.070;10.930;2022-09-03T04:42:18;101253.69;;;9.15;66.58
31092;BME280;17747;51.070;10.930;2022-09-03T04:43:18;101253.22;;;8.64;68.85
31092;BME280;17747;51.070;10.930;2022-09-03T04:44:20;101255.56;;;9.04;67.25
31092;BME280;17747;51.070;10.930;2022-09-03T04:45:21;101253.06;;;8.90;67.91
31092;BME280;17747;51.070;10.930;2022-09-03T04:46:25;101248.66;;;8.92;67.52
31092;BME280;17747;51.070;10.930;2022-09-03T04:47:26;101253.16;;;8.74;69.08
31092;BME280;17747;51.070;10.930;2022-09-03T04:48:29;101251.22;;;9.02;68.01
31092;BME280;17747;51.070;10.930;2022-09-03T04:49:31;101249.38;;;9.08;66.86
31092;BME280;17747;51.070;10.930;2022-09-03T04:50:33;101251.34;;;8.85;67.72
31092;BME280;17747;51.070;10.930;2022-09-03T04:51:35;101254.03;;;8.73;68.00
31092;BME280;17747;51.070;10.930;2022-09-03T04:52:36;101250.34;;;8.98;68.40
31092;BME280;17747;51.070;10.930;2022-09-03T04:53:39;101248.47;;;9.09;68.45
31092;BME280;17747;51.070;10.930;2022-09-03T04:54:40;101252.31;;;8.72;68.29
31092;BME280;17747;51.070;10.930;2022-09-03T04:55:42;101247.72;;;8.97;67.97
31092;BME280;17747;51.070;10.930;2022-09-03T04:56:42;101261.78;;;8.97;67.82
31092;BME280;17747;51.070;10.930;2022-09-03T04:57:44;101258.41;;;8.81;68.44
31092;BME280;17747;51.070;10.930;2022-09-03T04:58:45;101260.75;;;9.13;67.95
31092;BME280;17747;51.070;10.930;2022-09-03T04:59:46;101258.75;;;9.37;67.51
31092;BME280;17747;51.070;10.930;2022-09-03T05:00:47;101264.47;;;8.91;68.92
31092;BME280;17747;51.070;10.930;2022-09-03T05:01:49;101271.47;;;8.95;69.15
31092;BME280;17747;51.070;10.930;2022-09-03T05:02:51;101254.50;;;9.22;67.48
31092;BME280;17747;51.070;10.930;2022-09-03T05:03:54;101265.34;;;8.93;69.79
31092;BME280;17747;51.070;10.930;2022-09-03T05:04:55;101263.31;;;9.19;68.72
31092;BME280;17747;51.070;10.930;2022-09-03T05:05:58;101264.22;;;9.17;68.32
31092;BME280;17747;51.070;10.930;2022-09-03T05:06:58;101263.66;;;8.84;68.46
31092;BME280;17747;51.070;10.930;2022-09-03T05:08:00;101269.63;;;9.00;68.56
31092;BME280;17747;51.070;10.930;2022-09-03T05:09:02;101266.03;;;9.13;69.35
31092;BME280;17747;51.070;10.930;2022-09-03T05:10:05;101266.78;;;9.26;68.14
31092;BME280;17747;51.070;10.930;2022-09-03T05:11:07;101264.81;;;9.43;68.14
31092;BME280;17747;51.070;10.930;2022-09-03T05:12:08;101268.00;;;8.87;69.24
31092;BME280;17747;51.070;10.930;2022-09-03T05:13:10;101266.00;;;9.16;68.35
31092;BME280;17747;51.070;10.930;2022-09-03T05:14:11;101260.16;;;9.70;67.72
31092;BME280;17747;51.070;10.930;2022-09-03T05:15:12;101261.66;;;9.09;68.63
31092;BME280;17747;51.070;10.930;2022-09-03T05:16:14;101261.06;;;9.64;67.82
31092;BME280;17747;51.070;10.930;2022-09-03T05:17:15;101262.88;;;9.61;67.13
31092;BME280;17747;51.070;10.930;2022-09-03T05:18:16;101263.50;;;9.79;67.76
31092;BME280;17747;51.070;10.930;2022-09-03T05:19:17;101266.03;;;9.90;66.66
31092;BME280;17747;51.070;10.930;2022-09-03T05:20:18;101256.66;;;9.66;68.09
31092;BME280;17747;51.070;10.930;2022-09-03T05:21:21;101262.66;;;9.77;67.53
31092;BME280;17747;51.070;10.930;2022-09-03T05:22:23;101266.41;;;9.60;67.75
31092;BME280;17747;51.070;10.930;2022-09-03T05:23:24;101260.75;;;9.90;67.18
31092;BME280;17747;51.070;10.930;2022-09-03T05:24:25;101266.78;;;10.00;68.24
31092;BME280;17747;51.070;10.930;2022-09-03T05:25:26;101256.63;;;10.37;66.72
31092;BME280;17747;51.070;10.930;2022-09-03T05:26:29;101266.19;;;9.78;67.43
31092;BME280;17747;51.070;10.930;2022-09-03T05:27:30;101258.78;;;10.06;67.02
31092;BME280;17747;51.070;10.930;2022-09-03T05:28:32;101268.13;;;10.33;66.13
31092;BME280;17747;51.070;10.930;2022-09-03T05:29:32;101265.69;;;10.16;66.29
31092;BME280;17747;51.070;10.930;2022-09-03T05:30:34;101261.41;;;10.07;67.51
31092;BME280;17747;51.070;10.930;2022-09-03T05:31:37;101260.06;;;10.42;66.49
31092;BME280;17747;51.070;10.930;2022-09-03T05:32:39;101259.44;;;10.80;65.95
31092;BME280;17747;51.070;10.930;2022-09-03T05:33:41;101259.13;;;10.45;67.11
31092;BME280;17747;51.070;10.930;2022-09-03T05:34:43;101266.47;;;10.24;68.02
31092;BME280;17747;51.070;10.930;2022-09-03T05:35:43;101259.06;;;10.51;66.87
31092;BME280;17747;51.070;10.930;2022-09-03T05:36:46;101260.75;;;10.55;66.63
31092;BME280;17747;51.070;10.930;2022-09-03T05:37:49;101260.84;;;10.49;66.58
31092;BME280;17747;51.070;10.930;2022-09-03T05:38:50;101266.84;;;10.60;65.94
31092;BME280;17747;51.070;10.930;2022-09-03T05:39:53;101274.38;;;10.84;65.30